Valor — WDD8691 — position and weather

sailwx.info

Track history (hours):
 
Tides and Currents Weather Stations Pressure Air Temp Water Temp Dewpoint Dewpoint Depression Visibility Wind Speed Wind Dir Waves Ship Positions

Valor

Owner: Crowley Marine Services, Seattle, WA. More information available from US FCC via Universal Licensing System and Coast Guard Vessel Documentation Center.

Last reported at 2017-May-26 11:00 UTC. Time now 2017-May-26 16:34 UTC.
Position N 37°49' W 122°20'.

Length 8 m; draft 5.5 m.

Type: Tug. MMSI: 367301480.

Date/timePositionNaut miles runAvg speedWind from/ knotsBaromVisibWave heightAir tempDewpointWater temp
2017-May-26 11:00N 37°49' W 122°20'0 0.0
2017-May-26 10:30N 37°49' W 122°20'0 0.0
2017-May-26 10:00N 37°49' W 122°20'0 0.0
2017-May-26 09:30N 37°49' W 122°20'0 0.0
2017-May-26 09:00N 37°49' W 122°20'0 0.0
2017-May-26 08:30N 37°49' W 122°20'0 0.0
2017-May-26 08:00N 37°49' W 122°20'0 0.0
2017-May-26 07:30N 37°49' W 122°20'0 0.0
2017-May-26 07:00N 37°49' W 122°20'0 0.0
2017-May-26 06:30N 37°49' W 122°20'0 0.0
2017-May-26 06:00N 37°49' W 122°20'0 0.0
2017-May-26 05:30N 37°49' W 122°20'0 0.0
2017-May-26 05:00N 37°49' W 122°20'0 0.0
2017-May-26 04:30N 37°49' W 122°20'0 0.0
2017-May-26 04:00N 37°49' W 122°20'0 0.0
2017-May-26 03:30N 37°49' W 122°20'4 8.6
2017-May-26 03:00N 37°52' W 122°24'3 5.4
2017-May-26 02:30N 37°54' W 122°23'1 2.5
2017-May-26 02:00N 37°55' W 122°22'0 0.0
2017-May-26 01:30N 37°55' W 122°22'0 0.0
2017-May-26 00:59N 37°55' W 122°22'0 0.0
2017-May-26 00:30N 37°55' W 122°22'0 0.0
2017-May-26 00:00N 37°55' W 122°22'0 0.0
2017-May-25 23:30N 37°55' W 122°22'0 0.0
2017-May-25 23:00N 37°55' W 122°22'0 0.2
2017-May-25 22:30N 37°55' W 122°22'0 0.2
2017-May-25 22:00N 37°55' W 122°22'0 0.2
2017-May-25 21:30N 37°55' W 122°22'1 2.5
2017-May-25 21:00N 37°54' W 122°23'2 3.2
2017-May-25 20:30N 37°54' W 122°25'4 7.4
2017-May-25 20:01N 37°50' W 122°27'4 7.4
2017-May-25 19:31N 37°48' W 122°30'1 1.6
2017-May-25 19:00N 37°48' W 122°29'2 4.3
2017-May-25 18:30N 37°50' W 122°28'2 4.1
2017-May-25 18:00N 37°50' W 122°25'2 4.1
2017-May-25 17:30N 37°52' W 122°25'2 4.8
2017-May-25 17:00N 37°55' W 122°25'2 4.6
2017-May-25 16:30N 37°54' W 122°22'1 1.0
2017-May-25 16:00N 37°55' W 122°22'1 1.6
2017-May-25 15:30N 37°54' W 122°23'3 5.5
2017-May-25 15:00N 37°52' W 122°24'8 7.8
2017-May-25 14:00N 37°44' W 122°21'2 4.9
2017-May-25 13:30N 37°47' W 122°22'4 7.8
2017-May-25 13:00N 37°49' W 122°26'3 7.0
2017-May-25 12:30N 37°48' W 122°31'510.1
2017-May-25 12:00N 37°49' W 122°24'0 0.9
2017-May-25 11:30N 37°48' W 122°24'0 0.0
2017-May-25 11:00N 37°48' W 122°24'0 0.0
2017-May-25 10:30N 37°48' W 122°24'0 0.0
2017-May-25 10:00N 37°48' W 122°24'0 0.0
2017-May-25 09:30N 37°48' W 122°24'0 0.0
2017-May-25 09:00N 37°48' W 122°24'0 0.0
2017-May-25 08:30N 37°48' W 122°24'0 0.0
2017-May-25 08:00N 37°48' W 122°24'0 0.0
2017-May-25 07:30N 37°48' W 122°24'0 0.0
2017-May-25 07:00N 37°48' W 122°24'0 0.0
2017-May-25 06:30N 37°48' W 122°24'0 0.0
2017-May-25 06:00N 37°48' W 122°24'0 0.0
2017-May-25 05:30N 37°48' W 122°24'0 0.0
2017-May-25 05:00N 37°48' W 122°24'0 0.0
2017-May-25 04:30N 37°48' W 122°24'0 0.0
2017-May-25 04:00N 37°48' W 122°24'0 0.0
2017-May-25 03:30N 37°48' W 122°24'0 0.0
2017-May-25 03:00N 37°48' W 122°24'0 0.0
2017-May-25 02:30N 37°48' W 122°24'0 0.4
2017-May-25 02:00N 37°48' W 122°24'0 0.0
2017-May-25 01:30N 37°48' W 122°24'0 0.5
2017-May-25 01:00N 37°48' W 122°24'1 1.0
2017-May-25 00:30N 37°48' W 122°24'0 0.6
2017-May-25 00:00N 37°48' W 122°24'0 0.0
2017-May-24 23:30N 37°48' W 122°24'0 0.0
2017-May-24 23:00N 37°48' W 122°24'0 0.0
2017-May-24 22:30N 37°48' W 122°24'0 0.0
2017-May-24 22:00N 37°48' W 122°24'0 0.0
2017-May-24 21:30N 37°48' W 122°24'0 0.0
2017-May-24 21:00N 37°48' W 122°24'0 0.0
2017-May-24 20:30N 37°48' W 122°24'0 0.0
2017-May-24 20:00N 37°48' W 122°24'0 0.0
2017-May-24 19:30N 37°48' W 122°24'0 0.0
2017-May-24 19:00N 37°48' W 122°24'0 0.0
2017-May-24 18:30N 37°48' W 122°24'0 0.0
2017-May-24 18:00N 37°48' W 122°24'0 0.0
2017-May-24 17:30N 37°48' W 122°24'0 0.0
2017-May-24 17:00N 37°48' W 122°24'0 0.0
2017-May-24 16:30N 37°48' W 122°24'0 0.0
2017-May-24 16:00N 37°48' W 122°24'0 0.0
2017-May-24 15:30N 37°48' W 122°24'0 0.7
2017-May-24 15:00N 37°48' W 122°24'4 7.6
2017-May-24 14:30N 37°48' W 122°19'1 1.0
2017-May-24 13:30N 37°48' W 122°18'2 3.2
2017-May-24 13:00N 37°48' W 122°20'2 4.3
2017-May-24 12:30N 37°47' W 122°22'0 0.9
2017-May-24 12:00N 37°46' W 122°22'1 2.9
2017-May-24 11:30N 37°48' W 122°21'1 2.6
2017-May-24 11:00N 37°49' W 122°20'0 0.0
2017-May-24 10:30N 37°49' W 122°20'0 0.1
2017-May-24 10:00N 37°49' W 122°20'3 6.3
2017-May-24 09:30N 37°50' W 122°24'5 9.5
2017-May-24 09:00N 37°55' W 122°25'3 5.5
2017-May-24 08:30N 37°55' W 122°22'0 0.4
2017-May-24 08:00N 37°55' W 122°22'0 0.6
2017-May-24 07:30N 37°55' W 122°22'1 1.5
2017-May-24 07:00N 37°54' W 122°22'3 5.4
2017-May-24 06:30N 37°55' W 122°25'2 4.0
2017-May-24 06:00N 37°53' W 122°25'2 3.0
2017-May-24 05:30N 37°55' W 122°24'2 4.2
2017-May-24 05:00N 37°55' W 122°22'1 1.0
2017-May-24 04:30N 37°55' W 122°22'0 0.8
2017-May-24 04:00N 37°55' W 122°22'0 0.4
2017-May-24 03:30N 37°55' W 122°22'3 5.8
2017-May-24 03:00N 37°56' W 122°25'4 7.5
2017-May-24 02:30N 37°59' W 122°25'5 9.4
2017-May-24 02:00N 38°02' W 122°20'4 7.7
2017-May-24 01:30N 38°03' W 122°16'0 0.1
2017-May-24 01:00N 38°03' W 122°16'3 5.0
2017-May-24 00:29N 38°03' W 122°19'3 5.4
2017-May-23 23:59N 38°02' W 122°22'3 6.4
2017-May-23 23:30N 37°60' W 122°25'3 6.6
2017-May-23 23:00N 37°56' W 122°26'3 6.8
2017-May-23 22:30N 37°53' W 122°25'5 9.1
2017-May-23 22:00N 37°49' W 122°24'0 0.7
2017-May-23 21:30N 37°48' W 122°24'0 0.0
2017-May-23 21:00N 37°48' W 122°24'0 0.0
2017-May-23 20:30N 37°48' W 122°24'0 0.0
2017-May-23 20:00N 37°48' W 122°24'0 0.0
2017-May-23 19:30N 37°48' W 122°24'0 0.0
2017-May-23 19:00N 37°48' W 122°24'0 0.0
2017-May-23 18:30N 37°48' W 122°24'0 0.0
2017-May-23 18:00N 37°48' W 122°24'0 0.0
2017-May-23 17:30N 37°48' W 122°24'0 0.0
2017-May-23 17:00N 37°48' W 122°24'0 0.0
2017-May-23 16:30N 37°48' W 122°24'0 0.0
2017-May-23 16:00N 37°48' W 122°24'0 0.0
2017-May-23 15:30N 37°48' W 122°24'0 0.0
2017-May-23 15:00N 37°48' W 122°24'0 0.0
2017-May-23 14:30N 37°48' W 122°24'5 5.0
2017-May-23 13:30N 37°48' W 122°18'0 0.4
2017-May-23 13:00N 37°48' W 122°18'3 5.5
2017-May-23 12:30N 37°48' W 122°21'2 4.5
2017-May-23 12:00N 37°49' W 122°24'1 1.4
2017-May-23 11:30N 37°48' W 122°24'0 0.0
2017-May-23 11:00N 37°48' W 122°24'0 0.0
2017-May-23 10:30N 37°48' W 122°24'0 0.0
2017-May-23 10:00N 37°48' W 122°24'3 6.5
2017-May-23 09:30N 37°51' W 122°24'610.7
2017-May-23 08:58N 37°57' W 122°26'510.2
2017-May-23 08:30N 38°01' W 122°23'5 9.6
2017-May-23 08:00N 38°03' W 122°18'2 4.7
2017-May-23 07:30N 38°03' W 122°15'0 0.0
2017-May-23 07:00N 38°03' W 122°15'0 0.0
2017-May-23 06:30N 38°03' W 122°15'0 0.0
2017-May-23 05:59N 38°03' W 122°15'0 0.0
2017-May-23 05:07N 38°03' W 122°15'0 0.0
2017-May-23 04:57N 38°03' W 122°15'0 0.0
2017-May-23 04:30N 38°03' W 122°15'0 0.0
2017-May-23 03:57N 38°03' W 122°15'0 0.0
2017-May-23 03:29N 38°03' W 122°15'0 0.0
2017-May-23 03:00N 38°03' W 122°15'0 0.0
2017-May-23 02:30N 38°03' W 122°15'0 0.0
2017-May-23 02:00N 38°03' W 122°15'0 0.0
2017-May-23 01:30N 38°03' W 122°15'1 2.5
2017-May-23 01:00N 38°03' W 122°16'4 6.2
2017-May-23 00:24N 38°02' W 122°21'410.9
2017-May-23 00:01N 38°04' W 122°16'610.3
2017-May-22 23:28N 38°02' W 122°09'0 0.0
2017-May-22 22:15N 38°02' W 122°09'2 7.2
2017-May-22 22:00N 38°03' W 122°11'3 6.0
2017-May-22 21:30N 38°03' W 122°15'0 0.0
2017-May-22 21:00N 38°03' W 122°15'0 0.0
2017-May-22 20:30N 38°03' W 122°15'0 0.0
2017-May-22 20:00N 38°03' W 122°15'0 0.0
2017-May-22 19:30N 38°03' W 122°15'0 0.0
2017-May-22 19:00N 38°03' W 122°15'0 0.0
2017-May-22 18:30N 38°03' W 122°15'0 0.0
2017-May-22 18:00N 38°03' W 122°15'1 1.7
2017-May-22 17:30N 38°03' W 122°16'0 0.0
2017-May-22 17:00N 38°03' W 122°16'0 0.0
2017-May-22 16:30N 38°03' W 122°16'1 1.7
2017-May-22 15:59N 38°04' W 122°17'2 3.7
2017-May-22 15:27N 38°03' W 122°19'3 5.2
2017-May-22 14:57N 38°02' W 122°22'6 6.6
2017-May-22 14:00N 37°56' W 122°26'1 2.3
2017-May-22 13:30N 37°55' W 122°25'1 2.5
2017-May-22 13:00N 37°54' W 122°25'4 7.9
2017-May-22 12:30N 37°50' W 122°24'3 6.5
2017-May-22 12:00N 37°49' W 122°20'0 0.0
2017-May-22 11:30N 37°49' W 122°20'0 0.0
2017-May-22 11:00N 37°49' W 122°20'0 0.1
2017-May-22 10:30N 37°49' W 122°20'0 0.1
2017-May-22 10:00N 37°49' W 122°20'0 0.1
2017-May-22 09:30N 37°49' W 122°20'0 0.6
2017-May-22 09:01N 37°48' W 122°20'0 0.6
2017-May-22 08:30N 37°49' W 122°20'0 0.0
2017-May-22 08:00N 37°49' W 122°20'0 0.0
2017-May-22 07:30N 37°49' W 122°20'0 0.0
2017-May-22 07:00N 37°49' W 122°20'0 0.0
2017-May-22 06:30N 37°49' W 122°20'0 0.1
2017-May-22 05:59N 37°49' W 122°20'0 0.0
2017-May-22 05:30N 37°49' W 122°20'0 0.1
2017-May-22 05:00N 37°49' W 122°20'0 0.0
2017-May-22 04:30N 37°49' W 122°20'0 0.1
2017-May-22 04:00N 37°49' W 122°20'0 0.1
2017-May-22 03:30N 37°49' W 122°20'0 0.0
2017-May-22 03:00N 37°49' W 122°20'1 2.0
2017-May-22 02:31N 37°48' W 122°19'0 0.1
2017-May-22 02:00N 37°48' W 122°19'4 6.5
2017-May-22 01:27N 37°48' W 122°24'0 0.0
2017-May-22 01:00N 37°48' W 122°24'0 0.0
2017-May-22 00:30N 37°48' W 122°24'0 0.0
2017-May-22 00:00N 37°48' W 122°24'0 0.0
2017-May-21 23:30N 37°48' W 122°24'0 0.0
2017-May-21 23:00N 37°48' W 122°24'0 0.0
2017-May-21 22:30N 37°48' W 122°24'0 0.0
2017-May-21 22:00N 37°48' W 122°24'0 0.0
2017-May-21 21:30N 37°48' W 122°24'0 0.0
2017-May-21 21:00N 37°48' W 122°24'0 0.0
2017-May-21 20:28N 37°48' W 122°24'0 0.0
2017-May-21 20:00N 37°48' W 122°24'0 0.0
2017-May-21 19:28N 37°48' W 122°24'0 0.0
2017-May-21 19:00N 37°48' W 122°24'0 0.0
2017-May-21 18:26N 37°48' W 122°24'0 0.0
2017-May-21 17:55N 37°48' W 122°24'0 0.0
2017-May-21 17:29N 37°48' W 122°24'0 0.0
2017-May-21 17:00N 37°48' W 122°24'0 0.0
2017-May-21 16:30N 37°48' W 122°24'0 0.0
2017-May-21 16:00N 37°48' W 122°24'0 0.0
2017-May-21 15:30N 37°48' W 122°24'0 0.0
2017-May-21 15:00N 37°48' W 122°24'1 1.6
2017-May-21 14:30N 37°48' W 122°23'2 2.0
2017-May-21 13:30N 37°49' W 122°20'2 3.1
2017-May-21 13:00N 37°48' W 122°22'1 2.4
2017-May-21 12:30N 37°48' W 122°24'0 0.0
2017-May-21 12:00N 37°48' W 122°24'0 0.1
2017-May-21 11:30N 37°48' W 122°24'0 0.1
2017-May-21 11:00N 37°48' W 122°24'0 0.0
2017-May-21 10:25N 37°48' W 122°24'3 6.1
2017-May-21 10:00N 37°51' W 122°24'510.3
2017-May-21 09:30N 37°56' W 122°26'510.1
2017-May-21 09:00N 38°01' W 122°24'510.2
2017-May-21 08:30N 38°03' W 122°18'610.0
2017-May-21 07:56N 38°03' W 122°11'3 7.7
2017-May-21 07:30N 38°02' W 122°07'1 1.2
2017-May-21 06:28N 38°03' W 122°06'1 2.6
2017-May-21 05:55N 38°02' W 122°07'1 0.7
2017-May-21 03:49N 38°02' W 122°09'3 6.6
2017-May-21 03:25N 38°03' W 122°06'0 0.5
2017-May-21 02:53N 38°03' W 122°06'2 2.1
2017-May-21 02:09N 38°02' W 122°08'1 4.7
2017-May-21 01:59N 38°02' W 122°09'0 0.1
2017-May-21 00:23N 38°02' W 122°09'1 0.7
2017-May-20 23:14N 38°02' W 122°08'2 6.2
2017-May-20 22:56N 38°03' W 122°11'4 8.3
2017-May-20 22:29N 38°04' W 122°15'6 9.1
2017-May-20 21:48N 38°02' W 122°23'310.0
2017-May-20 21:30N 37°60' W 122°25'5 9.0
2017-May-20 21:00N 37°55' W 122°27'5 9.1
2017-May-20 20:30N 37°51' W 122°25'4 8.4
2017-May-20 20:00N 37°48' W 122°22'0 0.8
2017-May-20 19:30N 37°48' W 122°21'1 2.4
2017-May-20 19:00N 37°49' W 122°20'0 0.1
2017-May-20 18:30N 37°49' W 122°20'0 0.1
2017-May-20 18:00N 37°49' W 122°20'0 0.1
2017-May-20 17:30N 37°49' W 122°20'1 3.0
2017-May-20 17:00N 37°48' W 122°22'2 3.4
2017-May-20 16:30N 37°49' W 122°23'5 9.2
2017-May-20 16:00N 37°49' W 122°29'1 2.9
2017-May-20 15:30N 37°48' W 122°30'0 0.2
2017-May-20 15:00N 37°48' W 122°30'4 3.5
2017-May-20 14:00N 37°49' W 122°26'2 3.4
2017-May-20 13:30N 37°48' W 122°24'0 0.0
2017-May-20 13:00N 37°48' W 122°24'0 0.0
2017-May-20 12:30N 37°48' W 122°24'0 0.0
2017-May-20 12:00N 37°48' W 122°24'0 0.1
2017-May-20 11:30N 37°48' W 122°24'0 0.1
2017-May-20 11:00N 37°48' W 122°24'0 0.0
2017-May-20 10:30N 37°48' W 122°24'0 0.0
2017-May-20 10:00N 37°48' W 122°24'0 0.0
2017-May-20 09:30N 37°48' W 122°24'0 0.0
2017-May-20 09:00N 37°48' W 122°24'0 0.0
2017-May-20 08:30N 37°48' W 122°24'0 0.0
2017-May-20 08:00N 37°48' W 122°24'0 0.0
2017-May-20 07:30N 37°48' W 122°24'0 0.7
2017-May-20 07:00N 37°48' W 122°24'0 0.4
2017-May-20 06:30N 37°48' W 122°24'0 0.1
2017-May-20 06:00N 37°48' W 122°24'2 4.1
2017-May-20 05:30N 37°50' W 122°25'3 6.8
2017-May-20 05:00N 37°54' W 122°25'2 3.3
2017-May-20 04:30N 37°55' W 122°25'0 0.0
2017-May-20 04:00N 37°55' W 122°25'1 2.4
2017-May-20 03:30N 37°56' W 122°26'2 4.9
2017-May-20 03:00N 37°54' W 122°26'2 3.0
2017-May-20 02:30N 37°53' W 122°25'3 5.4
2017-May-20 02:00N 37°55' W 122°25'1 1.1
2017-May-20 01:30N 37°56' W 122°25'0 1.0
2017-May-20 01:00N 37°55' W 122°25'3 6.5
2017-May-20 00:30N 37°52' W 122°25'1 2.9
2017-May-20 00:00N 37°54' W 122°25'2 3.4
2017-May-19 23:29N 37°55' W 122°25'0 0.0
2017-May-19 23:00N 37°55' W 122°25'0 0.0
2017-May-19 22:30N 37°55' W 122°25'0 0.0
2017-May-19 22:00N 37°55' W 122°25'0 0.0
2017-May-19 21:30N 37°55' W 122°25'0 0.2
2017-May-19 21:00N 37°55' W 122°24'2 4.4
2017-May-19 20:30N 37°55' W 122°22'0 0.1
2017-May-19 20:00N 37°55' W 122°22'0 0.2
2017-May-19 19:30N 37°55' W 122°22'0 0.0
2017-May-19 19:00N 37°55' W 122°22'0 0.0
2017-May-19 18:30N 37°55' W 122°22'0 0.0
2017-May-19 18:00N 37°55' W 122°22'1 1.6
2017-May-19 17:30N 37°54' W 122°23'3 6.6
2017-May-19 17:00N 37°56' W 122°26'4 7.4
2017-May-19 16:30N 37°60' W 122°25'3 6.9
2017-May-19 16:00N 38°02' W 122°21'3 6.7
2017-May-19 15:30N 38°03' W 122°17'2 3.8
2017-May-19 15:00N 38°03' W 122°15'0 0.0
2017-May-19 13:56N 38°03' W 122°15'0 0.0
2017-May-19 13:23N 38°03' W 122°15'0 0.1
2017-May-19 12:59N 38°03' W 122°15'0 0.1
2017-May-19 12:30N 38°03' W 122°15'0 0.0
2017-May-19 11:57N 38°03' W 122°15'0 0.1
2017-May-19 11:30N 38°03' W 122°15'0 0.1
2017-May-19 11:00N 38°03' W 122°15'0 0.0
2017-May-19 10:30N 38°03' W 122°15'0 0.0
2017-May-19 09:59N 38°03' W 122°15'0 0.0
2017-May-19 09:29N 38°03' W 122°15'0 0.0
2017-May-19 09:00N 38°03' W 122°15'0 0.0
2017-May-19 08:30N 38°03' W 122°15'0 0.0
2017-May-19 08:00N 38°03' W 122°15'0 0.0
2017-May-19 07:30N 38°03' W 122°15'0 0.0
2017-May-19 07:00N 38°03' W 122°15'0 0.0
2017-May-19 06:30N 38°03' W 122°15'0 0.0
2017-May-19 05:51N 38°03' W 122°15'0 0.0
2017-May-19 05:29N 38°03' W 122°15'0 0.0
2017-May-19 05:00N 38°03' W 122°15'0 0.1
2017-May-19 04:30N 38°03' W 122°15'0 0.1
2017-May-19 04:00N 38°03' W 122°15'0 0.1
2017-May-19 03:29N 38°03' W 122°15'0 0.1
2017-May-19 03:00N 38°03' W 122°15'0 0.1
2017-May-19 02:30N 38°03' W 122°15'0 0.1
2017-May-19 02:00N 38°03' W 122°15'1 1.6
2017-May-19 01:30N 38°03' W 122°16'0 0.0
2017-May-19 01:00N 38°03' W 122°16'0 0.4
2017-May-19 00:30N 38°04' W 122°16'3 5.8
2017-May-19 00:00N 38°03' W 122°19'611.3
2017-May-18 23:29N 37°59' W 122°25'510.5
2017-May-18 23:00N 37°55' W 122°24'2 3.6
2017-May-18 22:30N 37°55' W 122°22'0 0.0
2017-May-18 22:00N 37°55' W 122°22'0 0.3
2017-May-18 21:30N 37°55' W 122°22'0 0.0
2017-May-18 21:00N 37°55' W 122°22'0 0.0
2017-May-18 20:30N 37°55' W 122°22'0 0.0
2017-May-18 20:00N 37°55' W 122°22'3 6.0
2017-May-18 19:30N 37°56' W 122°25'510.2
2017-May-18 19:00N 38°01' W 122°24'611.3
2017-May-18 18:30N 38°03' W 122°17'8 2.2
2017-May-18 15:06N 38°02' W 122°08'2 8.1
2017-May-18 14:50N 38°03' W 122°05'0 0.0
2017-May-18 13:57N 38°03' W 122°05'6 0.2
2017-May-17 01:40N 38°04' W 122°13'210.0
2017-May-17 01:30N 38°04' W 122°15'7 9.6
2017-May-17 00:47N 38°01' W 122°23'310.0
2017-May-17 00:28N 37°59' W 122°25'4 9.4
2017-May-17 00:00N 37°54' W 122°25'5 9.1
2017-May-16 23:30N 37°50' W 122°23'3 5.8
2017-May-16 23:00N 37°49' W 122°20'1 1.4
2017-May-16 22:30N 37°49' W 122°20'3 5.4
2017-May-16 22:01N 37°46' W 122°21'3 5.7
2017-May-16 21:30N 37°49' W 122°20'0 0.1
2017-May-16 21:00N 37°49' W 122°20'0 0.0
2017-May-16 20:31N 37°49' W 122°20'0 0.0
2017-May-16 20:01N 37°49' W 122°20'0 0.7
2017-May-16 19:30N 37°48' W 122°20'2 3.6
2017-May-16 19:00N 37°48' W 122°18'0 0.5
2017-May-16 18:30N 37°48' W 122°19'2 4.8
2017-May-16 18:00N 37°48' W 122°22'1 2.6
2017-May-16 17:30N 37°49' W 122°23'0 0.9
2017-May-16 17:00N 37°49' W 122°23'2 3.3
2017-May-16 16:30N 37°51' W 122°24'4 7.1
2017-May-16 16:00N 37°54' W 122°24'2 3.5
2017-May-16 15:30N 37°55' W 122°22'0 0.0
2017-May-16 15:00N 37°55' W 122°22'0 0.0
2017-May-16 14:00N 37°55' W 122°22'0 0.0
2017-May-16 13:29N 37°55' W 122°22'0 0.0
2017-May-16 12:59N 37°55' W 122°22'0 0.0
2017-May-16 12:30N 37°55' W 122°22'0 0.0
2017-May-16 12:00N 37°55' W 122°22'0 0.0
2017-May-16 11:30N 37°55' W 122°22'  
Track history (hours):
 
Tides and Currents Weather Stations Pressure Air Temp Water Temp Dewpoint Dewpoint Depression Visibility Wind Speed Wind Dir Waves Ship Positions

Valor

Owner: Crowley Marine Services, Seattle, WA. More information available from US FCC via Universal Licensing System and Coast Guard Vessel Documentation Center.

Last reported at 2017-May-26 11:00 UTC. Time now 2017-May-26 16:34 UTC.
Position N 37°49' W 122°20'.

Length 8 m; draft 5.5 m.

Type: Tug. MMSI: 367301480.

Date/timePositionNaut miles runAvg speedWind from/ knotsBaromVisibWave heightAir tempDewpointWater temp
2017-May-26 11:00N 37°49' W 122°20'0 0.0
2017-May-26 10:30N 37°49' W 122°20'0 0.0
2017-May-26 10:00N 37°49' W 122°20'0 0.0
2017-May-26 09:30N 37°49' W 122°20'0 0.0
2017-May-26 09:00N 37°49' W 122°20'0 0.0
2017-May-26 08:30N 37°49' W 122°20'0 0.0
2017-May-26 08:00N 37°49' W 122°20'0 0.0
2017-May-26 07:30N 37°49' W 122°20'0 0.0
2017-May-26 07:00N 37°49' W 122°20'0 0.0
2017-May-26 06:30N 37°49' W 122°20'0 0.0
2017-May-26 06:00N 37°49' W 122°20'0 0.0
2017-May-26 05:30N 37°49' W 122°20'0 0.0
2017-May-26 05:00N 37°49' W 122°20'0 0.0
2017-May-26 04:30N 37°49' W 122°20'0 0.0
2017-May-26 04:00N 37°49' W 122°20'0 0.0
2017-May-26 03:30N 37°49' W 122°20'4 8.6
2017-May-26 03:00N 37°52' W 122°24'3 5.4
2017-May-26 02:30N 37°54' W 122°23'1 2.5
2017-May-26 02:00N 37°55' W 122°22'0 0.0
2017-May-26 01:30N 37°55' W 122°22'0 0.0
2017-May-26 00:59N 37°55' W 122°22'0 0.0
2017-May-26 00:30N 37°55' W 122°22'0 0.0
2017-May-26 00:00N 37°55' W 122°22'0 0.0
2017-May-25 23:30N 37°55' W 122°22'0 0.0
2017-May-25 23:00N 37°55' W 122°22'0 0.2
2017-May-25 22:30N 37°55' W 122°22'0 0.2
2017-May-25 22:00N 37°55' W 122°22'0 0.2
2017-May-25 21:30N 37°55' W 122°22'1 2.5
2017-May-25 21:00N 37°54' W 122°23'2 3.2
2017-May-25 20:30N 37°54' W 122°25'4 7.4
2017-May-25 20:01N 37°50' W 122°27'4 7.4
2017-May-25 19:31N 37°48' W 122°30'1 1.6
2017-May-25 19:00N 37°48' W 122°29'2 4.3
2017-May-25 18:30N 37°50' W 122°28'2 4.1
2017-May-25 18:00N 37°50' W 122°25'2 4.1
2017-May-25 17:30N 37°52' W 122°25'2 4.8
2017-May-25 17:00N 37°55' W 122°25'2 4.6
2017-May-25 16:30N 37°54' W 122°22'1 1.0
2017-May-25 16:00N 37°55' W 122°22'1 1.6
2017-May-25 15:30N 37°54' W 122°23'3 5.5
2017-May-25 15:00N 37°52' W 122°24'8 7.8
2017-May-25 14:00N 37°44' W 122°21'2 4.9
2017-May-25 13:30N 37°47' W 122°22'4 7.8
2017-May-25 13:00N 37°49' W 122°26'3 7.0
2017-May-25 12:30N 37°48' W 122°31'510.1
2017-May-25 12:00N 37°49' W 122°24'0 0.9
2017-May-25 11:30N 37°48' W 122°24'0 0.0
2017-May-25 11:00N 37°48' W 122°24'0 0.0
2017-May-25 10:30N 37°48' W 122°24'0 0.0
2017-May-25 10:00N 37°48' W 122°24'0 0.0
2017-May-25 09:30N 37°48' W 122°24'0 0.0
2017-May-25 09:00N 37°48' W 122°24'0 0.0
2017-May-25 08:30N 37°48' W 122°24'0 0.0
2017-May-25 08:00N 37°48' W 122°24'0 0.0
2017-May-25 07:30N 37°48' W 122°24'0 0.0
2017-May-25 07:00N 37°48' W 122°24'0 0.0
2017-May-25 06:30N 37°48' W 122°24'0 0.0
2017-May-25 06:00N 37°48' W 122°24'0 0.0
2017-May-25 05:30N 37°48' W 122°24'0 0.0
2017-May-25 05:00N 37°48' W 122°24'0 0.0
2017-May-25 04:30N 37°48' W 122°24'0 0.0
2017-May-25 04:00N 37°48' W 122°24'0 0.0
2017-May-25 03:30N 37°48' W 122°24'0 0.0
2017-May-25 03:00N 37°48' W 122°24'0 0.0
2017-May-25 02:30N 37°48' W 122°24'0 0.4
2017-May-25 02:00N 37°48' W 122°24'0 0.0
2017-May-25 01:30N 37°48' W 122°24'0 0.5
2017-May-25 01:00N 37°48' W 122°24'1 1.0
2017-May-25 00:30N 37°48' W 122°24'0 0.6
2017-May-25 00:00N 37°48' W 122°24'0 0.0
2017-May-24 23:30N 37°48' W 122°24'0 0.0
2017-May-24 23:00N 37°48' W 122°24'0 0.0
2017-May-24 22:30N 37°48' W 122°24'0 0.0
2017-May-24 22:00N 37°48' W 122°24'0 0.0
2017-May-24 21:30N 37°48' W 122°24'0 0.0
2017-May-24 21:00N 37°48' W 122°24'0 0.0
2017-May-24 20:30N 37°48' W 122°24'0 0.0
2017-May-24 20:00N 37°48' W 122°24'0 0.0
2017-May-24 19:30N 37°48' W 122°24'0 0.0
2017-May-24 19:00N 37°48' W 122°24'0 0.0
2017-May-24 18:30N 37°48' W 122°24'0 0.0
2017-May-24 18:00N 37°48' W 122°24'0 0.0
2017-May-24 17:30N 37°48' W 122°24'0 0.0
2017-May-24 17:00N 37°48' W 122°24'0 0.0
2017-May-24 16:30N 37°48' W 122°24'0 0.0
2017-May-24 16:00N 37°48' W 122°24'0 0.0
2017-May-24 15:30N 37°48' W 122°24'0 0.7
2017-May-24 15:00N 37°48' W 122°24'4 7.6
2017-May-24 14:30N 37°48' W 122°19'1 1.0
2017-May-24 13:30N 37°48' W 122°18'2 3.2
2017-May-24 13:00N 37°48' W 122°20'2 4.3
2017-May-24 12:30N 37°47' W 122°22'0 0.9
2017-May-24 12:00N 37°46' W 122°22'1 2.9
2017-May-24 11:30N 37°48' W 122°21'1 2.6
2017-May-24 11:00N 37°49' W 122°20'0 0.0
2017-May-24 10:30N 37°49' W 122°20'0 0.1
2017-May-24 10:00N 37°49' W 122°20'3 6.3
2017-May-24 09:30N 37°50' W 122°24'5 9.5
2017-May-24 09:00N 37°55' W 122°25'3 5.5
2017-May-24 08:30N 37°55' W 122°22'0 0.4
2017-May-24 08:00N 37°55' W 122°22'0 0.6
2017-May-24 07:30N 37°55' W 122°22'1 1.5
2017-May-24 07:00N 37°54' W 122°22'3 5.4
2017-May-24 06:30N 37°55' W 122°25'2 4.0
2017-May-24 06:00N 37°53' W 122°25'2 3.0
2017-May-24 05:30N 37°55' W 122°24'2 4.2
2017-May-24 05:00N 37°55' W 122°22'1 1.0
2017-May-24 04:30N 37°55' W 122°22'0 0.8
2017-May-24 04:00N 37°55' W 122°22'0 0.4
2017-May-24 03:30N 37°55' W 122°22'3 5.8
2017-May-24 03:00N 37°56' W 122°25'4 7.5
2017-May-24 02:30N 37°59' W 122°25'5 9.4
2017-May-24 02:00N 38°02' W 122°20'4 7.7
2017-May-24 01:30N 38°03' W 122°16'0 0.1
2017-May-24 01:00N 38°03' W 122°16'3 5.0
2017-May-24 00:29N 38°03' W 122°19'3 5.4
2017-May-23 23:59N 38°02' W 122°22'3 6.4
2017-May-23 23:30N 37°60' W 122°25'3 6.6
2017-May-23 23:00N 37°56' W 122°26'3 6.8
2017-May-23 22:30N 37°53' W 122°25'5 9.1
2017-May-23 22:00N 37°49' W 122°24'0 0.7
2017-May-23 21:30N 37°48' W 122°24'0 0.0
2017-May-23 21:00N 37°48' W 122°24'0 0.0
2017-May-23 20:30N 37°48' W 122°24'0 0.0
2017-May-23 20:00N 37°48' W 122°24'0 0.0
2017-May-23 19:30N 37°48' W 122°24'0 0.0
2017-May-23 19:00N 37°48' W 122°24'0 0.0
2017-May-23 18:30N 37°48' W 122°24'0 0.0
2017-May-23 18:00N 37°48' W 122°24'0 0.0
2017-May-23 17:30N 37°48' W 122°24'0 0.0
2017-May-23 17:00N 37°48' W 122°24'0 0.0
2017-May-23 16:30N 37°48' W 122°24'0 0.0
2017-May-23 16:00N 37°48' W 122°24'0 0.0
2017-May-23 15:30N 37°48' W 122°24'0 0.0
2017-May-23 15:00N 37°48' W 122°24'0 0.0
2017-May-23 14:30N 37°48' W 122°24'5 5.0
2017-May-23 13:30N 37°48' W 122°18'0 0.4
2017-May-23 13:00N 37°48' W 122°18'3 5.5
2017-May-23 12:30N 37°48' W 122°21'2 4.5
2017-May-23 12:00N 37°49' W 122°24'1 1.4
2017-May-23 11:30N 37°48' W 122°24'0 0.0
2017-May-23 11:00N 37°48' W 122°24'0 0.0
2017-May-23 10:30N 37°48' W 122°24'0 0.0
2017-May-23 10:00N 37°48' W 122°24'3 6.5
2017-May-23 09:30N 37°51' W 122°24'610.7
2017-May-23 08:58N 37°57' W 122°26'510.2
2017-May-23 08:30N 38°01' W 122°23'5 9.6
2017-May-23 08:00N 38°03' W 122°18'2 4.7
2017-May-23 07:30N 38°03' W 122°15'0 0.0
2017-May-23 07:00N 38°03' W 122°15'0 0.0
2017-May-23 06:30N 38°03' W 122°15'0 0.0
2017-May-23 05:59N 38°03' W 122°15'0 0.0
2017-May-23 05:07N 38°03' W 122°15'0 0.0
2017-May-23 04:57N 38°03' W 122°15'0 0.0
2017-May-23 04:30N 38°03' W 122°15'0 0.0
2017-May-23 03:57N 38°03' W 122°15'0 0.0
2017-May-23 03:29N 38°03' W 122°15'0 0.0
2017-May-23 03:00N 38°03' W 122°15'0 0.0
2017-May-23 02:30N 38°03' W 122°15'0 0.0
2017-May-23 02:00N 38°03' W 122°15'0 0.0
2017-May-23 01:30N 38°03' W 122°15'1 2.5
2017-May-23 01:00N 38°03' W 122°16'4 6.2
2017-May-23 00:24N 38°02' W 122°21'410.9
2017-May-23 00:01N 38°04' W 122°16'610.3
2017-May-22 23:28N 38°02' W 122°09'0 0.0
2017-May-22 22:15N 38°02' W 122°09'2 7.2
2017-May-22 22:00N 38°03' W 122°11'3 6.0
2017-May-22 21:30N 38°03' W 122°15'0 0.0
2017-May-22 21:00N 38°03' W 122°15'0 0.0
2017-May-22 20:30N 38°03' W 122°15'0 0.0
2017-May-22 20:00N 38°03' W 122°15'0 0.0
2017-May-22 19:30N 38°03' W 122°15'0 0.0
2017-May-22 19:00N 38°03' W 122°15'0 0.0
2017-May-22 18:30N 38°03' W 122°15'0 0.0
2017-May-22 18:00N 38°03' W 122°15'1 1.7
2017-May-22 17:30N 38°03' W 122°16'0 0.0
2017-May-22 17:00N 38°03' W 122°16'0 0.0
2017-May-22 16:30N 38°03' W 122°16'1 1.7
2017-May-22 15:59N 38°04' W 122°17'2 3.7
2017-May-22 15:27N 38°03' W 122°19'3 5.2
2017-May-22 14:57N 38°02' W 122°22'6 6.6
2017-May-22 14:00N 37°56' W 122°26'1 2.3
2017-May-22 13:30N 37°55' W 122°25'1 2.5
2017-May-22 13:00N 37°54' W 122°25'4 7.9
2017-May-22 12:30N 37°50' W 122°24'3 6.5
2017-May-22 12:00N 37°49' W 122°20'0 0.0
2017-May-22 11:30N 37°49' W 122°20'0 0.0
2017-May-22 11:00N 37°49' W 122°20'0 0.1
2017-May-22 10:30N 37°49' W 122°20'0 0.1
2017-May-22 10:00N 37°49' W 122°20'0 0.1
2017-May-22 09:30N 37°49' W 122°20'0 0.6
2017-May-22 09:01N 37°48' W 122°20'0 0.6
2017-May-22 08:30N 37°49' W 122°20'0 0.0
2017-May-22 08:00N 37°49' W 122°20'0 0.0
2017-May-22 07:30N 37°49' W 122°20'0 0.0
2017-May-22 07:00N 37°49' W 122°20'0 0.0
2017-May-22 06:30N 37°49' W 122°20'0 0.1
2017-May-22 05:59N 37°49' W 122°20'0 0.0
2017-May-22 05:30N 37°49' W 122°20'0 0.1
2017-May-22 05:00N 37°49' W 122°20'0 0.0
2017-May-22 04:30N 37°49' W 122°20'0 0.1
2017-May-22 04:00N 37°49' W 122°20'0 0.1
2017-May-22 03:30N 37°49' W 122°20'0 0.0
2017-May-22 03:00N 37°49' W 122°20'1 2.0
2017-May-22 02:31N 37°48' W 122°19'0 0.1
2017-May-22 02:00N 37°48' W 122°19'4 6.5
2017-May-22 01:27N 37°48' W 122°24'0 0.0
2017-May-22 01:00N 37°48' W 122°24'0 0.0
2017-May-22 00:30N 37°48' W 122°24'0 0.0
2017-May-22 00:00N 37°48' W 122°24'0 0.0
2017-May-21 23:30N 37°48' W 122°24'0 0.0
2017-May-21 23:00N 37°48' W 122°24'0 0.0
2017-May-21 22:30N 37°48' W 122°24'0 0.0
2017-May-21 22:00N 37°48' W 122°24'0 0.0
2017-May-21 21:30N 37°48' W 122°24'0 0.0
2017-May-21 21:00N 37°48' W 122°24'0 0.0
2017-May-21 20:28N 37°48' W 122°24'0 0.0
2017-May-21 20:00N 37°48' W 122°24'0 0.0
2017-May-21 19:28N 37°48' W 122°24'0 0.0
2017-May-21 19:00N 37°48' W 122°24'0 0.0
2017-May-21 18:26N 37°48' W 122°24'0 0.0
2017-May-21 17:55N 37°48' W 122°24'0 0.0
2017-May-21 17:29N 37°48' W 122°24'0 0.0
2017-May-21 17:00N 37°48' W 122°24'0 0.0
2017-May-21 16:30N 37°48' W 122°24'0 0.0
2017-May-21 16:00N 37°48' W 122°24'0 0.0
2017-May-21 15:30N 37°48' W 122°24'0 0.0
2017-May-21 15:00N 37°48' W 122°24'1 1.6
2017-May-21 14:30N 37°48' W 122°23'2 2.0
2017-May-21 13:30N 37°49' W 122°20'2 3.1
2017-May-21 13:00N 37°48' W 122°22'1 2.4
2017-May-21 12:30N 37°48' W 122°24'0 0.0
2017-May-21 12:00N 37°48' W 122°24'0 0.1
2017-May-21 11:30N 37°48' W 122°24'0 0.1
2017-May-21 11:00N 37°48' W 122°24'0 0.0
2017-May-21 10:25N 37°48' W 122°24'3 6.1
2017-May-21 10:00N 37°51' W 122°24'510.3
2017-May-21 09:30N 37°56' W 122°26'510.1
2017-May-21 09:00N 38°01' W 122°24'510.2
2017-May-21 08:30N 38°03' W 122°18'610.0
2017-May-21 07:56N 38°03' W 122°11'3 7.7
2017-May-21 07:30N 38°02' W 122°07'1 1.2
2017-May-21 06:28N 38°03' W 122°06'1 2.6
2017-May-21 05:55N 38°02' W 122°07'1 0.7
2017-May-21 03:49N 38°02' W 122°09'3 6.6
2017-May-21 03:25N 38°03' W 122°06'0 0.5
2017-May-21 02:53N 38°03' W 122°06'2 2.1
2017-May-21 02:09N 38°02' W 122°08'1 4.7
2017-May-21 01:59N 38°02' W 122°09'0 0.1
2017-May-21 00:23N 38°02' W 122°09'1 0.7
2017-May-20 23:14N 38°02' W 122°08'2 6.2
2017-May-20 22:56N 38°03' W 122°11'4 8.3
2017-May-20 22:29N 38°04' W 122°15'6 9.1
2017-May-20 21:48N 38°02' W 122°23'310.0
2017-May-20 21:30N 37°60' W 122°25'5 9.0
2017-May-20 21:00N 37°55' W 122°27'5 9.1
2017-May-20 20:30N 37°51' W 122°25'4 8.4
2017-May-20 20:00N 37°48' W 122°22'0 0.8
2017-May-20 19:30N 37°48' W 122°21'1 2.4
2017-May-20 19:00N 37°49' W 122°20'0 0.1
2017-May-20 18:30N 37°49' W 122°20'0 0.1
2017-May-20 18:00N 37°49' W 122°20'0 0.1
2017-May-20 17:30N 37°49' W 122°20'1 3.0
2017-May-20 17:00N 37°48' W 122°22'2 3.4
2017-May-20 16:30N 37°49' W 122°23'5 9.2
2017-May-20 16:00N 37°49' W 122°29'1 2.9
2017-May-20 15:30N 37°48' W 122°30'0 0.2
2017-May-20 15:00N 37°48' W 122°30'4 3.5
2017-May-20 14:00N 37°49' W 122°26'2 3.4
2017-May-20 13:30N 37°48' W 122°24'0 0.0
2017-May-20 13:00N 37°48' W 122°24'0 0.0
2017-May-20 12:30N 37°48' W 122°24'0 0.0
2017-May-20 12:00N 37°48' W 122°24'0 0.1
2017-May-20 11:30N 37°48' W 122°24'0 0.1
2017-May-20 11:00N 37°48' W 122°24'0 0.0
2017-May-20 10:30N 37°48' W 122°24'0 0.0
2017-May-20 10:00N 37°48' W 122°24'0 0.0
2017-May-20 09:30N 37°48' W 122°24'0 0.0
2017-May-20 09:00N 37°48' W 122°24'0 0.0
2017-May-20 08:30N 37°48' W 122°24'0 0.0
2017-May-20 08:00N 37°48' W 122°24'0 0.0
2017-May-20 07:30N 37°48' W 122°24'0 0.7
2017-May-20 07:00N 37°48' W 122°24'0 0.4
2017-May-20 06:30N 37°48' W 122°24'0 0.1
2017-May-20 06:00N 37°48' W 122°24'2 4.1
2017-May-20 05:30N 37°50' W 122°25'3 6.8
2017-May-20 05:00N 37°54' W 122°25'2 3.3
2017-May-20 04:30N 37°55' W 122°25'0 0.0
2017-May-20 04:00N 37°55' W 122°25'1 2.4
2017-May-20 03:30N 37°56' W 122°26'2 4.9
2017-May-20 03:00N 37°54' W 122°26'2 3.0
2017-May-20 02:30N 37°53' W 122°25'3 5.4
2017-May-20 02:00N 37°55' W 122°25'1 1.1
2017-May-20 01:30N 37°56' W 122°25'0 1.0
2017-May-20 01:00N 37°55' W 122°25'3 6.5
2017-May-20 00:30N 37°52' W 122°25'1 2.9
2017-May-20 00:00N 37°54' W 122°25'2 3.4
2017-May-19 23:29N 37°55' W 122°25'0 0.0
2017-May-19 23:00N 37°55' W 122°25'0 0.0
2017-May-19 22:30N 37°55' W 122°25'0 0.0
2017-May-19 22:00N 37°55' W 122°25'0 0.0
2017-May-19 21:30N 37°55' W 122°25'0 0.2
2017-May-19 21:00N 37°55' W 122°24'2 4.4
2017-May-19 20:30N 37°55' W 122°22'0 0.1
2017-May-19 20:00N 37°55' W 122°22'0 0.2
2017-May-19 19:30N 37°55' W 122°22'0 0.0
2017-May-19 19:00N 37°55' W 122°22'0 0.0
2017-May-19 18:30N 37°55' W 122°22'0 0.0
2017-May-19 18:00N 37°55' W 122°22'1 1.6
2017-May-19 17:30N 37°54' W 122°23'3 6.6
2017-May-19 17:00N 37°56' W 122°26'4 7.4
2017-May-19 16:30N 37°60' W 122°25'3 6.9
2017-May-19 16:00N 38°02' W 122°21'3 6.7
2017-May-19 15:30N 38°03' W 122°17'2 3.8
2017-May-19 15:00N 38°03' W 122°15'0 0.0
2017-May-19 13:56N 38°03' W 122°15'0 0.0
2017-May-19 13:23N 38°03' W 122°15'0 0.1
2017-May-19 12:59N 38°03' W 122°15'0 0.1
2017-May-19 12:30N 38°03' W 122°15'0 0.0
2017-May-19 11:57N 38°03' W 122°15'0 0.1
2017-May-19 11:30N 38°03' W 122°15'0 0.1
2017-May-19 11:00N 38°03' W 122°15'0 0.0
2017-May-19 10:30N 38°03' W 122°15'0 0.0
2017-May-19 09:59N 38°03' W 122°15'0 0.0
2017-May-19 09:29N 38°03' W 122°15'0 0.0
2017-May-19 09:00N 38°03' W 122°15'0 0.0
2017-May-19 08:30N 38°03' W 122°15'0 0.0
2017-May-19 08:00N 38°03' W 122°15'0 0.0
2017-May-19 07:30N 38°03' W 122°15'0 0.0
2017-May-19 07:00N 38°03' W 122°15'0 0.0
2017-May-19 06:30N 38°03' W 122°15'0 0.0
2017-May-19 05:51N 38°03' W 122°15'0 0.0
2017-May-19 05:29N 38°03' W 122°15'0 0.0
2017-May-19 05:00N 38°03' W 122°15'0 0.1
2017-May-19 04:30N 38°03' W 122°15'0 0.1
2017-May-19 04:00N 38°03' W 122°15'0 0.1
2017-May-19 03:29N 38°03' W 122°15'0 0.1
2017-May-19 03:00N 38°03' W 122°15'0 0.1
2017-May-19 02:30N 38°03' W 122°15'0 0.1
2017-May-19 02:00N 38°03' W 122°15'1 1.6
2017-May-19 01:30N 38°03' W 122°16'0 0.0
2017-May-19 01:00N 38°03' W 122°16'0 0.4
2017-May-19 00:30N 38°04' W 122°16'3 5.8
2017-May-19 00:00N 38°03' W 122°19'611.3
2017-May-18 23:29N 37°59' W 122°25'510.5
2017-May-18 23:00N 37°55' W 122°24'2 3.6
2017-May-18 22:30N 37°55' W 122°22'0 0.0
2017-May-18 22:00N 37°55' W 122°22'0 0.3
2017-May-18 21:30N 37°55' W 122°22'0 0.0
2017-May-18 21:00N 37°55' W 122°22'0 0.0
2017-May-18 20:30N 37°55' W 122°22'0 0.0
2017-May-18 20:00N 37°55' W 122°22'3 6.0
2017-May-18 19:30N 37°56' W 122°25'510.2
2017-May-18 19:00N 38°01' W 122°24'611.3
2017-May-18 18:30N 38°03' W 122°17'8 2.2
2017-May-18 15:06N 38°02' W 122°08'2 8.1
2017-May-18 14:50N 38°03' W 122°05'0 0.0
2017-May-18 13:57N 38°03' W 122°05'6 0.2
2017-May-17 01:40N 38°04' W 122°13'210.0
2017-May-17 01:30N 38°04' W 122°15'7 9.6
2017-May-17 00:47N 38°01' W 122°23'310.0
2017-May-17 00:28N 37°59' W 122°25'4 9.4
2017-May-17 00:00N 37°54' W 122°25'5 9.1
2017-May-16 23:30N 37°50' W 122°23'3 5.8
2017-May-16 23:00N 37°49' W 122°20'1 1.4
2017-May-16 22:30N 37°49' W 122°20'3 5.4
2017-May-16 22:01N 37°46' W 122°21'3 5.7
2017-May-16 21:30N 37°49' W 122°20'0 0.1
2017-May-16 21:00N 37°49' W 122°20'0 0.0
2017-May-16 20:31N 37°49' W 122°20'0 0.0
2017-May-16 20:01N 37°49' W 122°20'0 0.7
2017-May-16 19:30N 37°48' W 122°20'2 3.6
2017-May-16 19:00N 37°48' W 122°18'0 0.5
2017-May-16 18:30N 37°48' W 122°19'2 4.8
2017-May-16 18:00N 37°48' W 122°22'1 2.6
2017-May-16 17:30N 37°49' W 122°23'0 0.9
2017-May-16 17:00N 37°49' W 122°23'2 3.3
2017-May-16 16:30N 37°51' W 122°24'4 7.1
2017-May-16 16:00N 37°54' W 122°24'2 3.5
2017-May-16 15:30N 37°55' W 122°22'0 0.0
2017-May-16 15:00N 37°55' W 122°22'0 0.0
2017-May-16 14:00N 37°55' W 122°22'0 0.0
2017-May-16 13:29N 37°55' W 122°22'0 0.0
2017-May-16 12:59N 37°55' W 122°22'0 0.0
2017-May-16 12:30N 37°55' W 122°22'0 0.0
2017-May-16 12:00N 37°55' W 122°22'0 0.0
2017-May-16 11:30N 37°55' W 122°22'  

Dump ship's entire track history